sensor_id;sensor_type;location;lat;lon;timestamp;pressure;altitude;pressure_sealevel;temperature;humidity
71344;BME280;59146;43.850;25.948;2024-02-26T00:01:25;100735.16;;;10.87;89.48
71344;BME280;59146;43.850;25.948;2024-02-26T00:03:51;100715.19;;;11.00;88.06
71344;BME280;59146;43.850;25.948;2024-02-26T00:06:17;100708.09;;;11.02;86.92
71344;BME280;59146;43.850;25.948;2024-02-26T00:08:44;100700.00;;;11.20;86.11
71344;BME280;59146;43.850;25.948;2024-02-26T00:11:09;100701.75;;;10.92;87.04
71344;BME280;59146;43.850;25.948;2024-02-26T00:13:35;100639.47;;;10.70;88.46
71344;BME280;59146;43.850;25.948;2024-02-26T00:16:02;100666.13;;;11.05;87.91
71344;BME280;59146;43.850;25.948;2024-02-26T00:18:27;100722.47;;;11.39;87.37
71344;BME280;59146;43.850;25.948;2024-02-26T00:20:52;100719.19;;;11.35;85.26
71344;BME280;59146;43.850;25.948;2024-02-26T00:23:18;100643.59;;;10.29;86.88
71344;BME280;59146;43.850;25.948;2024-02-26T00:25:43;100645.75;;;9.76;91.05
71344;BME280;59146;43.850;25.948;2024-02-26T00:28:10;100723.78;;;10.27;92.08
71344;BME280;59146;43.850;25.948;2024-02-26T00:30:36;100723.53;;;10.31;92.92
71344;BME280;59146;43.850;25.948;2024-02-26T00:33:01;100678.56;;;10.26;92.24
71344;BME280;59146;43.850;25.948;2024-02-26T00:35:27;100657.47;;;10.15;90.98
71344;BME280;59146;43.850;25.948;2024-02-26T00:37:52;100712.84;;;10.20;92.33
71344;BME280;59146;43.850;25.948;2024-02-26T00:40:18;100682.53;;;10.33;91.63
71344;BME280;59146;43.850;25.948;2024-02-26T00:42:44;100615.84;;;10.12;90.94
71344;BME280;59146;43.850;25.948;2024-02-26T00:45:14;100662.91;;;10.56;90.41
71344;BME280;59146;43.850;25.948;2024-02-26T00:47:41;100641.53;;;10.50;88.90
71344;BME280;59146;43.850;25.948;2024-02-26T00:50:07;100636.88;;;10.41;89.39
71344;BME280;59146;43.850;25.948;2024-02-26T00:52:34;100656.53;;;10.62;89.06
71344;BME280;59146;43.850;25.948;2024-02-26T00:54:59;100624.38;;;10.46;88.79
71344;BME280;59146;43.850;25.948;2024-02-26T00:57:25;100686.25;;;10.89;88.58
71344;BME280;59146;43.850;25.948;2024-02-26T00:59:50;100692.88;;;10.80;87.98
71344;BME280;59146;43.850;25.948;2024-02-26T01:02:16;100619.22;;;10.14;89.42
71344;BME280;59146;43.850;25.948;2024-02-26T01:04:41;100687.97;;;10.45;90.73
71344;BME280;59146;43.850;25.948;2024-02-26T01:07:07;100662.63;;;10.47;90.08
71344;BME280;59146;43.850;25.948;2024-02-26T01:09:32;100584.38;;;10.00;89.52
71344;BME280;59146;43.850;25.948;2024-02-26T01:11:58;100685.44;;;10.73;88.60
71344;BME280;59146;43.850;25.948;2024-02-26T01:14:23;100680.09;;;10.60;89.02
71344;BME280;59146;43.850;25.948;2024-02-26T01:16:49;100656.44;;;10.48;89.64
71344;BME280;59146;43.850;25.948;2024-02-26T01:19:14;100669.91;;;10.56;89.44
71344;BME280;59146;43.850;25.948;2024-02-26T01:21:40;100676.88;;;10.71;88.94
71344;BME280;59146;43.850;25.948;2024-02-26T01:24:06;100656.81;;;10.42;88.85
71344;BME280;59146;43.850;25.948;2024-02-26T01:26:32;100593.31;;;9.80;90.72
71344;BME280;59146;43.850;25.948;2024-02-26T01:28:57;100678.06;;;10.35;91.76
71344;BME280;59146;43.850;25.948;2024-02-26T01:31:23;100600.53;;;10.06;91.18
71344;BME280;59146;43.850;25.948;2024-02-26T01:33:48;100593.63;;;10.05;89.57
71344;BME280;59146;43.850;25.948;2024-02-26T01:36:14;100656.06;;;10.39;89.59
71344;BME280;59146;43.850;25.948;2024-02-26T01:38:39;100683.88;;;10.41;90.25
71344;BME280;59146;43.850;25.948;2024-02-26T01:41:04;100662.63;;;10.31;90.40
71344;BME280;59146;43.850;25.948;2024-02-26T01:43:30;100660.16;;;10.44;89.58
71344;BME280;59146;43.850;25.948;2024-02-26T01:45:55;100649.47;;;10.48;88.99
71344;BME280;59146;43.850;25.948;2024-02-26T01:48:21;100548.03;;;9.81;88.29
71344;BME280;59146;43.850;25.948;2024-02-26T01:50:47;100600.06;;;9.84;88.82
71344;BME280;59146;43.850;25.948;2024-02-26T01:53:12;100614.50;;;9.90;89.70
71344;BME280;59146;43.850;25.948;2024-02-26T01:55:38;100636.47;;;10.17;89.24
71344;BME280;59146;43.850;25.948;2024-02-26T01:58:05;100669.69;;;10.45;89.26
71344;BME280;59146;43.850;25.948;2024-02-26T02:00:30;100592.63;;;9.92;88.89
71344;BME280;59146;43.850;25.948;2024-02-26T02:02:56;100666.41;;;10.11;89.99
71344;BME280;59146;43.850;25.948;2024-02-26T02:05:22;100666.59;;;10.07;90.75
71344;BME280;59146;43.850;25.948;2024-02-26T02:07:48;100604.06;;;9.74;90.96
71344;BME280;59146;43.850;25.948;2024-02-26T02:10:15;100640.09;;;9.99;90.90
71344;BME280;59146;43.850;25.948;2024-02-26T02:12:40;100608.13;;;9.64;90.78
71344;BME280;59146;43.850;25.948;2024-02-26T02:15:06;100666.19;;;9.83;92.50
71344;BME280;59146;43.850;25.948;2024-02-26T02:17:32;100672.91;;;9.87;93.40
71344;BME280;59146;43.850;25.948;2024-02-26T02:19:57;100648.94;;;9.81;92.58
71344;BME280;59146;43.850;25.948;2024-02-26T02:22:23;100673.44;;;10.09;91.87
71344;BME280;59146;43.850;25.948;2024-02-26T02:24:52;100545.03;;;9.11;92.04
71344;BME280;59146;43.850;25.948;2024-02-26T02:27:18;100638.19;;;9.23;93.95
71344;BME280;59146;43.850;25.948;2024-02-26T02:29:44;100662.63;;;9.53;95.07
71344;BME280;59146;43.850;25.948;2024-02-26T02:32:10;100662.06;;;9.79;93.83
71344;BME280;59146;43.850;25.948;2024-02-26T02:34:36;100663.66;;;9.82;92.93
71344;BME280;59146;43.850;25.948;2024-02-26T02:37:01;100569.75;;;9.19;92.54
71344;BME280;59146;43.850;25.948;2024-02-26T02:39:26;100664.84;;;9.60;94.00
71344;BME280;59146;43.850;25.948;2024-02-26T02:41:52;100687.53;;;9.74;94.35
71344;BME280;59146;43.850;25.948;2024-02-26T02:44:17;100589.72;;;9.36;93.66
71344;BME280;59146;43.850;25.948;2024-02-26T02:46:43;100629.34;;;9.74;92.33
71344;BME280;59146;43.850;25.948;2024-02-26T02:49:09;100653.22;;;9.66;91.83
71344;BME280;59146;43.850;25.948;2024-02-26T02:51:35;100657.31;;;9.39;94.00
71344;BME280;59146;43.850;25.948;2024-02-26T02:54:01;100685.13;;;9.71;94.19
71344;BME280;59146;43.850;25.948;2024-02-26T02:56:26;100691.09;;;9.73;93.72
71344;BME280;59146;43.850;25.948;2024-02-26T02:58:52;100677.88;;;9.76;92.70
71344;BME280;59146;43.850;25.948;2024-02-26T03:01:17;100621.22;;;9.31;92.64
71344;BME280;59146;43.850;25.948;2024-02-26T03:03:43;100605.88;;;9.10;93.95
71344;BME280;59146;43.850;25.948;2024-02-26T03:06:08;100681.97;;;9.49;94.14
71344;BME280;59146;43.850;25.948;2024-02-26T03:08:33;100657.06;;;9.28;93.46
71344;BME280;59146;43.850;25.948;2024-02-26T03:11:03;100704.13;;;9.73;92.77
71344;BME280;59146;43.850;25.948;2024-02-26T03:13:29;100709.69;;;9.34;94.62
71344;BME280;59146;43.850;25.948;2024-02-26T03:15:54;100606.56;;;8.63;96.14
71344;BME280;59146;43.850;25.948;2024-02-26T03:18:19;100682.28;;;9.27;95.94
71344;BME280;59146;43.850;25.948;2024-02-26T03:20:45;100681.94;;;9.33;95.09
71344;BME280;59146;43.850;25.948;2024-02-26T03:23:11;100647.41;;;9.13;94.77
71344;BME280;59146;43.850;25.948;2024-02-26T03:25:41;100617.44;;;8.71;96.13
71344;BME280;59146;43.850;25.948;2024-02-26T03:28:06;100680.44;;;9.12;97.64
71344;BME280;59146;43.850;25.948;2024-02-26T03:30:31;100695.31;;;9.43;95.97
71344;BME280;59146;43.850;25.948;2024-02-26T03:32:57;100696.50;;;9.37;95.11
71344;BME280;59146;43.850;25.948;2024-02-26T03:35:22;100586.19;;;8.71;95.05
71344;BME280;59146;43.850;25.948;2024-02-26T03:37:48;100656.72;;;8.84;97.22
71344;BME280;59146;43.850;25.948;2024-02-26T03:40:15;100685.00;;;9.09;97.74
71344;BME280;59146;43.850;25.948;2024-02-26T03:42:40;100698.25;;;9.37;96.68
71344;BME280;59146;43.850;25.948;2024-02-26T03:45:06;100695.75;;;9.51;95.34
71344;BME280;59146;43.850;25.948;2024-02-26T03:47:32;100676.75;;;9.16;95.50
71344;BME280;59146;43.850;25.948;2024-02-26T03:49:57;100698.16;;;9.06;97.45
71344;BME280;59146;43.850;25.948;2024-02-26T03:52:24;100657.19;;;8.92;97.40
71344;BME280;59146;43.850;25.948;2024-02-26T03:54:49;100685.63;;;9.29;96.14
71344;BME280;59146;43.850;25.948;2024-02-26T03:57:15;100691.56;;;9.48;95.01
71344;BME280;59146;43.850;25.948;2024-02-26T03:59:40;100658.09;;;8.91;95.73
71344;BME280;59146;43.850;25.948;2024-02-26T04:02:06;100711.88;;;9.09;97.67
71344;BME280;59146;43.850;25.948;2024-02-26T04:04:34;100699.81;;;9.24;97.31
71344;BME280;59146;43.850;25.948;2024-02-26T04:07:00;100646.81;;;9.08;95.80
71344;BME280;59146;43.850;25.948;2024-02-26T04:09:25;100700.97;;;9.51;94.26
71344;BME280;59146;43.850;25.948;2024-02-26T04:11:50;100652.59;;;8.80;95.38
71344;BME280;59146;43.850;25.948;2024-02-26T04:14:16;100536.09;;;7.98;97.13
71344;BME280;59146;43.850;25.948;2024-02-26T04:16:41;100712.25;;;9.19;96.57
71344;BME280;59146;43.850;25.948;2024-02-26T04:19:07;100544.13;;;8.29;96.07
71344;BME280;59146;43.850;25.948;2024-02-26T04:21:33;100709.00;;;9.31;95.24
71344;BME280;59146;43.850;25.948;2024-02-26T04:23:58;100645.94;;;8.74;96.09
71344;BME280;59146;43.850;25.948;2024-02-26T04:26:27;100694.66;;;9.07;97.34
71344;BME280;59146;43.850;25.948;2024-02-26T04:28:52;100644.84;;;8.96;96.45
71344;BME280;59146;43.850;25.948;2024-02-26T04:31:18;100709.22;;;9.43;95.69
71344;BME280;59146;43.850;25.948;2024-02-26T04:33:44;100698.97;;;9.40;94.04
71344;BME280;59146;43.850;25.948;2024-02-26T04:36:13;100640.59;;;8.77;94.90
71344;BME280;59146;43.850;25.948;2024-02-26T04:38:40;100699.38;;;9.16;96.50
71344;BME280;59146;43.850;25.948;2024-02-26T04:41:05;100713.56;;;9.43;95.50
71344;BME280;59146;43.850;25.948;2024-02-26T04:43:31;100711.25;;;9.54;94.04
71344;BME280;59146;43.850;25.948;2024-02-26T04:45:56;100723.22;;;9.58;93.23
71344;BME280;59146;43.850;25.948;2024-02-26T04:48:22;100709.25;;;9.09;95.26
71344;BME280;59146;43.850;25.948;2024-02-26T04:50:48;100657.75;;;8.82;96.24
71344;BME280;59146;43.850;25.948;2024-02-26T04:53:13;100637.94;;;8.95;94.80
71344;BME280;59146;43.850;25.948;2024-02-26T04:55:39;100718.94;;;9.57;93.51
71344;BME280;59146;43.850;25.948;2024-02-26T04:58:04;100627.72;;;9.07;92.47
71344;BME280;59146;43.850;25.948;2024-02-26T05:00:30;100642.31;;;8.94;93.11
71344;BME280;59146;43.850;25.948;2024-02-26T05:02:55;100701.41;;;9.26;93.94
71344;BME280;59146;43.850;25.948;2024-02-26T05:05:21;100723.84;;;9.46;93.89
71344;BME280;59146;43.850;25.948;2024-02-26T05:07:46;100714.63;;;9.56;92.76
71344;BME280;59146;43.850;25.948;2024-02-26T05:10:11;100707.00;;;9.69;91.47
71344;BME280;59146;43.850;25.948;2024-02-26T05:12:37;100708.47;;;9.24;92.67
71344;BME280;59146;43.850;25.948;2024-02-26T05:15:03;100666.00;;;8.90;93.94
71344;BME280;59146;43.850;25.948;2024-02-26T05:17:29;100657.88;;;8.96;93.33
71344;BME280;59146;43.850;25.948;2024-02-26T05:19:54;100604.03;;;8.79;92.32
71344;BME280;59146;43.850;25.948;2024-02-26T05:22:19;100714.63;;;9.56;92.11
71344;BME280;59146;43.850;25.948;2024-02-26T05:24:45;100733.88;;;9.21;92.90
71344;BME280;59146;43.850;25.948;2024-02-26T05:27:10;100643.41;;;8.73;93.58
71344;BME280;59146;43.850;25.948;2024-02-26T05:29:37;100717.00;;;9.28;93.19
71344;BME280;59146;43.850;25.948;2024-02-26T05:32:03;100667.41;;;9.12;92.05
71344;BME280;59146;43.850;25.948;2024-02-26T05:34:29;100741.88;;;9.50;91.68
71344;BME280;59146;43.850;25.948;2024-02-26T05:36:55;100639.94;;;8.90;91.63
71344;BME280;59146;43.850;25.948;2024-02-26T05:39:21;100759.59;;;9.44;92.64
71344;BME280;59146;43.850;25.948;2024-02-26T05:41:47;100762.50;;;9.55;93.59
71344;BME280;59146;43.850;25.948;2024-02-26T05:44:12;100709.94;;;9.30;92.87
71344;BME280;59146;43.850;25.948;2024-02-26T05:46:38;100761.53;;;9.73;92.15
71344;BME280;59146;43.850;25.948;2024-02-26T05:49:03;100697.03;;;9.59;89.96
71344;BME280;59146;43.850;25.948;2024-02-26T05:51:29;100765.03;;;9.72;90.28
71344;BME280;59146;43.850;25.948;2024-02-26T05:53:54;100718.34;;;9.35;91.23
71344;BME280;59146;43.850;25.948;2024-02-26T05:56:23;100784.81;;;9.76;91.15
71344;BME280;59146;43.850;25.948;2024-02-26T05:58:49;100772.06;;;9.87;91.04
71344;BME280;59146;43.850;25.948;2024-02-26T06:01:15;100773.91;;;9.85;90.40
71344;BME280;59146;43.850;25.948;2024-02-26T06:03:41;100747.63;;;9.73;89.34
71344;BME280;59146;43.850;25.948;2024-02-26T06:06:07;100693.00;;;9.21;90.78
71344;BME280;59146;43.850;25.948;2024-02-26T06:08:33;100775.41;;;9.74;91.78
71344;BME280;59146;43.850;25.948;2024-02-26T06:10:58;100768.53;;;9.88;90.89
71344;BME280;59146;43.850;25.948;2024-02-26T06:13:24;100781.41;;;9.91;89.52
71344;BME280;59146;43.850;25.948;2024-02-26T06:15:49;100788.63;;;10.19;88.75
71344;BME280;59146;43.850;25.948;2024-02-26T06:18:15;100765.84;;;9.90;88.50
71344;BME280;59146;43.850;25.948;2024-02-26T06:20:41;100724.00;;;9.43;90.33
71344;BME280;59146;43.850;25.948;2024-02-26T06:23:07;100736.44;;;9.71;91.17
71344;BME280;59146;43.850;25.948;2024-02-26T06:25:32;100738.66;;;9.94;90.05
71344;BME280;59146;43.850;25.948;2024-02-26T06:27:57;100768.03;;;9.97;90.32
71344;BME280;59146;43.850;25.948;2024-02-26T06:30:23;100791.47;;;9.99;90.67
71344;BME280;59146;43.850;25.948;2024-02-26T06:32:48;100799.88;;;10.04;90.58
71344;BME280;59146;43.850;25.948;2024-02-26T06:35:14;100813.75;;;10.37;89.85
71344;BME280;59146;43.850;25.948;2024-02-26T06:37:39;100791.16;;;10.52;88.46
71344;BME280;59146;43.850;25.948;2024-02-26T06:40:05;100810.69;;;10.76;86.71
71344;BME280;59146;43.850;25.948;2024-02-26T06:42:34;100812.91;;;10.52;86.85
71344;BME280;59146;43.850;25.948;2024-02-26T06:44:59;100751.13;;;10.04;87.61
71344;BME280;59146;43.850;25.948;2024-02-26T06:47:25;100809.19;;;10.72;86.19
71344;BME280;59146;43.850;25.948;2024-02-26T06:49:51;100803.00;;;10.88;85.00
71344;BME280;59146;43.850;25.948;2024-02-26T06:52:16;100810.25;;;10.99;84.49
71344;BME280;59146;43.850;25.948;2024-02-26T06:54:42;100802.91;;;10.90;83.69
71344;BME280;59146;43.850;25.948;2024-02-26T06:57:07;100809.34;;;10.69;85.83
71344;BME280;59146;43.850;25.948;2024-02-26T06:59:32;100709.28;;;10.53;84.37
71344;BME280;59146;43.850;25.948;2024-02-26T07:01:58;100834.69;;;10.98;84.99
71344;BME280;59146;43.850;25.948;2024-02-26T07:04:23;100811.06;;;11.29;83.89
71344;BME280;59146;43.850;25.948;2024-02-26T07:06:49;100776.16;;;11.30;82.78
71344;BME280;59146;43.850;25.948;2024-02-26T07:09:14;100819.97;;;11.70;82.91
71344;BME280;59146;43.850;25.948;2024-02-26T07:11:40;100797.97;;;11.15;85.79
71344;BME280;59146;43.850;25.948;2024-02-26T07:14:12;100763.06;;;10.86;88.76
71344;BME280;59146;43.850;25.948;2024-02-26T07:16:37;100750.81;;;11.16;86.63
71344;BME280;59146;43.850;25.948;2024-02-26T07:19:03;100816.63;;;11.82;84.81
71344;BME280;59146;43.850;25.948;2024-02-26T07:21:29;100817.72;;;12.07;82.08
71344;BME280;59146;43.850;25.948;2024-02-26T07:23:54;100818.28;;;11.69;82.19
71344;BME280;59146;43.850;25.948;2024-02-26T07:26:19;100792.25;;;11.52;82.75
71344;BME280;59146;43.850;25.948;2024-02-26T07:28:46;100763.84;;;11.46;82.14
71344;BME280;59146;43.850;25.948;2024-02-26T07:31:12;100793.59;;;11.73;83.54
71344;BME280;59146;43.850;25.948;2024-02-26T07:33:38;100812.69;;;11.46;85.03
71344;BME280;59146;43.850;25.948;2024-02-26T07:36:04;100793.13;;;11.23;86.86
71344;BME280;59146;43.850;25.948;2024-02-26T07:38:29;100777.63;;;11.20;85.84
71344;BME280;59146;43.850;25.948;2024-02-26T07:40:55;100776.28;;;11.43;84.25
71344;BME280;59146;43.850;25.948;2024-02-26T07:43:22;100802.56;;;11.83;82.85
71344;BME280;59146;43.850;25.948;2024-02-26T07:45:48;100781.97;;;11.49;82.68
71344;BME280;59146;43.850;25.948;2024-02-26T07:48:13;100827.31;;;11.50;84.42
71344;BME280;59146;43.850;25.948;2024-02-26T07:50:39;100776.75;;;11.63;82.79
71344;BME280;59146;43.850;25.948;2024-02-26T07:53:05;100831.56;;;12.09;81.45
71344;BME280;59146;43.850;25.948;2024-02-26T07:55:31;100825.56;;;12.35;79.63
71344;BME280;59146;43.850;25.948;2024-02-26T07:57:57;100821.47;;;12.17;79.83
71344;BME280;59146;43.850;25.948;2024-02-26T08:00:22;100817.06;;;12.03;80.84
71344;BME280;59146;43.850;25.948;2024-02-26T08:02:48;100814.13;;;12.50;79.52
71344;BME280;59146;43.850;25.948;2024-02-26T08:05:13;100766.72;;;12.67;77.23
71344;BME280;59146;43.850;25.948;2024-02-26T08:07:39;100820.59;;;13.24;75.22
71344;BME280;59146;43.850;25.948;2024-02-26T08:10:05;100818.69;;;13.14;74.55
71344;BME280;59146;43.850;25.948;2024-02-26T08:12:33;100807.81;;;13.32;74.24
71344;BME280;59146;43.850;25.948;2024-02-26T08:14:59;100813.13;;;13.18;74.31
71344;BME280;59146;43.850;25.948;2024-02-26T08:17:25;100807.38;;;12.99;75.95
71344;BME280;59146;43.850;25.948;2024-02-26T08:19:52;100775.53;;;13.05;74.78
71344;BME280;59146;43.850;25.948;2024-02-26T08:22:17;100802.13;;;13.26;74.24
71344;BME280;59146;43.850;25.948;2024-02-26T08:24:43;100808.19;;;13.66;72.83
71344;BME280;59146;43.850;25.948;2024-02-26T08:27:09;100819.72;;;13.88;72.11
71344;BME280;59146;43.850;25.948;2024-02-26T08:29:34;100810.56;;;14.06;71.70
71344;BME280;59146;43.850;25.948;2024-02-26T08:32:00;100809.00;;;13.79;72.41
71344;BME280;59146;43.850;25.948;2024-02-26T08:34:26;100696.81;;;12.80;73.56
71344;BME280;59146;43.850;25.948;2024-02-26T08:36:51;100811.53;;;13.80;71.66
71344;BME280;59146;43.850;25.948;2024-02-26T08:39:17;100805.63;;;14.02;70.44
71344;BME280;59146;43.850;25.948;2024-02-26T08:41:43;100789.66;;;14.05;70.13
71344;BME280;59146;43.850;25.948;2024-02-26T08:44:09;100774.38;;;13.74;69.43
71344;BME280;59146;43.850;25.948;2024-02-26T08:46:35;100813.78;;;14.10;71.06
71344;BME280;59146;43.850;25.948;2024-02-26T08:49:01;100811.16;;;14.35;69.81
71344;BME280;59146;43.850;25.948;2024-02-26T08:51:26;100817.91;;;14.63;68.41
71344;BME280;59146;43.850;25.948;2024-02-26T08:53:52;100825.22;;;14.83;67.06
71344;BME280;59146;43.850;25.948;2024-02-26T08:56:25;100812.69;;;14.50;67.26
71344;BME280;59146;43.850;25.948;2024-02-26T08:58:53;100828.19;;;14.17;70.30
71344;BME280;59146;43.850;25.948;2024-02-26T09:01:22;100821.88;;;14.68;67.54
71344;BME280;59146;43.850;25.948;2024-02-26T09:03:48;100759.97;;;14.41;66.10
71344;BME280;59146;43.850;25.948;2024-02-26T09:06:16;100817.59;;;14.91;64.98
71344;BME280;59146;43.850;25.948;2024-02-26T09:08:42;100828.38;;;14.99;64.17
71344;BME280;59146;43.850;25.948;2024-02-26T09:11:08;100818.84;;;15.09;63.78
71344;BME280;59146;43.850;25.948;2024-02-26T09:13:35;100824.25;;;15.19;63.52
71344;BME280;59146;43.850;25.948;2024-02-26T09:16:01;100808.72;;;14.92;64.50
71344;BME280;59146;43.850;25.948;2024-02-26T09:18:26;100822.16;;;15.00;64.61
71344;BME280;59146;43.850;25.948;2024-02-26T09:20:54;100768.03;;;15.08;63.04
71344;BME280;59146;43.850;25.948;2024-02-26T09:23:19;100802.50;;;15.51;61.99
71344;BME280;59146;43.850;25.948;2024-02-26T09:25:45;100828.75;;;15.64;62.22
71344;BME280;59146;43.850;25.948;2024-02-26T09:28:11;100773.22;;;15.56;61.37
71344;BME280;59146;43.850;25.948;2024-02-26T09:30:36;100779.66;;;15.63;61.11
71344;BME280;59146;43.850;25.948;2024-02-26T09:33:03;100776.81;;;15.20;61.53
71344;BME280;59146;43.850;25.948;2024-02-26T09:35:31;100817.75;;;15.70;61.84
71344;BME280;59146;43.850;25.948;2024-02-26T09:37:57;100821.38;;;16.02;60.99
71344;BME280;59146;43.850;25.948;2024-02-26T09:40:22;100770.34;;;15.92;59.49
71344;BME280;59146;43.850;25.948;2024-02-26T09:42:53;100776.31;;;16.05;58.91
71344;BME280;59146;43.850;25.948;2024-02-26T09:45:25;100789.75;;;15.91;59.42
71344;BME280;59146;43.850;25.948;2024-02-26T09:47:53;100786.88;;;16.05;59.96
71344;BME280;59146;43.850;25.948;2024-02-26T09:50:20;100750.72;;;15.74;60.64
71344;BME280;59146;43.850;25.948;2024-02-26T09:52:48;100810.44;;;16.40;59.20
71344;BME280;59146;43.850;25.948;2024-02-26T09:55:14;100807.19;;;16.36;59.51
71344;BME280;59146;43.850;25.948;2024-02-26T09:57:45;100803.09;;;16.65;58.84
71344;BME280;59146;43.850;25.948;2024-02-26T10:00:20;100800.94;;;16.71;58.85
71344;BME280;59146;43.850;25.948;2024-02-26T10:02:47;100775.25;;;16.84;57.43
71344;BME280;59146;43.850;25.948;2024-02-26T10:05:16;100785.59;;;16.76;58.13
71344;BME280;59146;43.850;25.948;2024-02-26T10:07:44;100770.06;;;16.17;60.21
71344;BME280;59146;43.850;25.948;2024-02-26T10:10:10;100778.91;;;16.60;59.26
71344;BME280;59146;43.850;25.948;2024-02-26T10:12:36;100781.84;;;16.78;58.98
71344;BME280;59146;43.850;25.948;2024-02-26T10:15:01;100789.03;;;17.08;57.00
71344;BME280;59146;43.850;25.948;2024-02-26T10:17:28;100771.31;;;16.99;56.43
71344;BME280;59146;43.850;25.948;2024-02-26T10:19:54;100780.41;;;17.06;56.92
71344;BME280;59146;43.850;25.948;2024-02-26T10:22:22;100783.94;;;16.95;58.07
71344;BME280;59146;43.850;25.948;2024-02-26T10:24:48;100776.50;;;17.21;57.43
71344;BME280;59146;43.850;25.948;2024-02-26T10:27:14;100764.84;;;17.44;56.73
71344;BME280;59146;43.850;25.948;2024-02-26T10:29:40;100766.09;;;17.91;54.63
71344;BME280;59146;43.850;25.948;2024-02-26T10:32:09;100770.09;;;17.85;53.51
71344;BME280;59146;43.850;25.948;2024-02-26T10:34:35;100709.16;;;17.06;55.31
71344;BME280;59146;43.850;25.948;2024-02-26T10:37:03;100714.91;;;17.11;55.43
71344;BME280;59146;43.850;25.948;2024-02-26T10:39:30;100741.31;;;17.62;55.13
71344;BME280;59146;43.850;25.948;2024-02-26T10:41:55;100691.81;;;17.54;52.87
71344;BME280;59146;43.850;25.948;2024-02-26T10:44:21;100738.91;;;17.79;52.66
71344;BME280;59146;43.850;25.948;2024-02-26T10:46:47;100769.91;;;18.07;52.17
71344;BME280;59146;43.850;25.948;2024-02-26T10:49:16;100768.22;;;17.97;52.29
71344;BME280;59146;43.850;25.948;2024-02-26T10:51:45;100763.09;;;17.75;53.39
71344;BME280;59146;43.850;25.948;2024-02-26T10:54:15;100752.41;;;17.35;53.78
71344;BME280;59146;43.850;25.948;2024-02-26T10:56:41;100750.94;;;17.42;53.71
71344;BME280;59146;43.850;25.948;2024-02-26T10:59:09;100748.25;;;17.53;53.29
71344;BME280;59146;43.850;25.948;2024-02-26T11:01:35;100749.91;;;17.54;53.13
71344;BME280;59146;43.850;25.948;2024-02-26T11:04:03;100742.69;;;17.56;53.85
71344;BME280;59146;43.850;25.948;2024-02-26T11:06:31;100695.91;;;17.47;53.36
71344;BME280;59146;43.850;25.948;2024-02-26T11:09:01;100736.44;;;17.87;53.33
71344;BME280;59146;43.850;25.948;2024-02-26T11:11:36;100743.41;;;17.88;53.15
71344;BME280;59146;43.850;25.948;2024-02-26T11:14:06;100699.78;;;17.43;53.73
71344;BME280;59146;43.850;25.948;2024-02-26T11:16:35;100689.09;;;17.75;53.07
71344;BME280;59146;43.850;25.948;2024-02-26T11:19:02;100715.66;;;18.22;52.43
71344;BME280;59146;43.850;25.948;2024-02-26T11:21:28;100730.44;;;18.25;52.21
71344;BME280;59146;43.850;25.948;2024-02-26T11:24:14;100735.47;;;18.28;52.33
71344;BME280;59146;43.850;25.948;2024-02-26T11:26:48;100708.63;;;18.33;51.65
71344;BME280;59146;43.850;25.948;2024-02-26T11:29:19;100692.31;;;18.27;51.60
71344;BME280;59146;43.850;25.948;2024-02-26T11:31:47;100724.63;;;18.41;51.34
71344;BME280;59146;43.850;25.948;2024-02-26T11:34:13;100729.53;;;18.45;50.98
71344;BME280;59146;43.850;25.948;2024-02-26T11:36:38;100730.50;;;18.54;50.65
71344;BME280;59146;43.850;25.948;2024-02-26T11:39:04;100711.56;;;18.58;50.76
71344;BME280;59146;43.850;25.948;2024-02-26T11:41:31;100714.50;;;18.55;50.27
71344;BME280;59146;43.850;25.948;2024-02-26T11:44:03;100719.19;;;18.42;50.46
71344;BME280;59146;43.850;25.948;2024-02-26T11:46:31;100723.22;;;18.37;51.27
71344;BME280;59146;43.850;25.948;2024-02-26T11:49:02;100715.06;;;18.00;51.95
71344;BME280;59146;43.850;25.948;2024-02-26T11:51:32;100617.13;;;17.82;51.44
71344;BME280;59146;43.850;25.948;2024-02-26T11:53:58;100711.28;;;18.71;50.12
71344;BME280;59146;43.850;25.948;2024-02-26T11:56:24;100693.47;;;18.73;49.66
71344;BME280;59146;43.850;25.948;2024-02-26T12:01:39;100711.97;;;18.44;49.97
71344;BME280;59146;43.850;25.948;2024-02-26T12:04:07;100700.94;;;18.20;50.34
71344;BME280;59146;43.850;25.948;2024-02-26T12:06:55;100688.28;;;18.23;50.29
71344;BME280;59146;43.850;25.948;2024-02-26T12:09:38;100693.97;;;18.28;50.01
71344;BME280;59146;43.850;25.948;2024-02-26T12:12:06;100705.38;;;18.29;49.58
71344;BME280;59146;43.850;25.948;2024-02-26T12:14:34;100712.06;;;18.23;50.05
71344;BME280;59146;43.850;25.948;2024-02-26T12:17:00;100676.72;;;18.34;49.40
71344;BME280;59146;43.850;25.948;2024-02-26T12:19:27;100689.59;;;18.58;48.55
71344;BME280;59146;43.850;25.948;2024-02-26T12:21:53;100698.47;;;18.85;48.86
71344;BME280;59146;43.850;25.948;2024-02-26T12:24:20;100686.88;;;19.15;47.56
71344;BME280;59146;43.850;25.948;2024-02-26T12:26:46;100690.78;;;19.11;47.99
71344;BME280;59146;43.850;25.948;2024-02-26T12:29:12;100629.16;;;18.72;47.54
71344;BME280;59146;43.850;25.948;2024-02-26T12:31:39;100648.06;;;18.77;47.23
71344;BME280;59146;43.850;25.948;2024-02-26T12:34:06;100643.88;;;18.75;47.54
71344;BME280;59146;43.850;25.948;2024-02-26T12:36:34;100687.59;;;19.08;47.71
71344;BME280;59146;43.850;25.948;2024-02-26T12:39:04;100670.09;;;18.78;48.15
71344;BME280;59146;43.850;25.948;2024-02-26T12:41:32;100640.44;;;18.55;48.38